createdAt,value
2019-03-04T00:00:43.403Z,99493.70
2019-03-04T00:05:45.867Z,99496.58
2019-03-04T00:10:48.341Z,99491.70
2019-03-04T00:15:50.816Z,99478.23
2019-03-04T00:20:53.295Z,99458.86
2019-03-04T00:25:55.752Z,99440.25
2019-03-04T00:30:58.228Z,99432.19
2019-03-04T00:36:00.683Z,99425.84
2019-03-04T00:41:03.153Z,99416.25
2019-03-04T00:46:05.628Z,99406.25
2019-03-04T00:51:08.096Z,99404.28
2019-03-04T00:56:10.549Z,99407.59
2019-03-04T01:01:13.011Z,99386.68
2019-03-04T01:06:15.474Z,99385.93
2019-03-04T01:11:17.952Z,99386.67
2019-03-04T01:16:20.415Z,99391.53
2019-03-04T01:21:22.869Z,99391.37
2019-03-04T01:26:25.350Z,99395.48
2019-03-04T01:31:27.810Z,99393.79
2019-03-04T01:36:30.266Z,99382.67
2019-03-04T01:41:32.767Z,99378.14
2019-03-04T01:46:35.223Z,99407.92
2019-03-04T01:51:37.691Z,99381.38
2019-03-04T01:56:40.159Z,99362.81
2019-03-04T02:01:42.607Z,99371.23
2019-03-04T02:06:45.176Z,99372.38
2019-03-04T02:11:47.636Z,99368.08
2019-03-04T02:16:50.099Z,99351.00
2019-03-04T02:21:52.623Z,99348.17
2019-03-04T02:26:55.100Z,99342.74
2019-03-04T02:31:57.558Z,99332.88
2019-03-04T02:37:00.027Z,99330.61
2019-03-04T02:42:02.491Z,99293.66
2019-03-04T02:47:04.972Z,99245.53
2019-03-04T02:52:07.409Z,99177.37
2019-03-04T02:57:09.881Z,99169.78
2019-03-04T03:02:12.354Z,99201.23
2019-03-04T03:07:14.815Z,99203.45
2019-03-04T03:12:17.288Z,99175.55
2019-03-04T03:17:19.760Z,99136.84
2019-03-04T03:22:22.220Z,99103.07
2019-03-04T03:27:24.691Z,99103.83
2019-03-04T03:32:27.149Z,99119.75
2019-03-04T03:37:29.603Z,99070.96
2019-03-04T03:42:32.057Z,99073.31
2019-03-04T03:47:34.522Z,99059.38
2019-03-04T03:52:37.052Z,99061.05
2019-03-04T03:57:39.517Z,99087.16
2019-03-04T04:02:41.988Z,99080.63
2019-03-04T04:07:44.432Z,99079.58
2019-03-04T04:12:46.897Z,99066.06
2019-03-04T04:17:49.451Z,99063.84
2019-03-04T04:22:51.910Z,99066.41
2019-03-04T04:27:54.369Z,99066.45
2019-03-04T04:32:56.835Z,99061.95
2019-03-04T04:37:59.308Z,99042.41
2019-03-04T04:43:01.765Z,99018.27
2019-03-04T04:48:04.313Z,99010.97
2019-03-04T04:53:06.775Z,98984.52
2019-03-04T04:58:09.243Z,98982.23
2019-03-04T05:03:11.706Z,98993.68
2019-03-04T05:08:14.176Z,98948.91
2019-03-04T05:13:16.649Z,98932.03
2019-03-04T05:18:19.115Z,98899.06
2019-03-04T05:23:21.564Z,98882.18
2019-03-04T05:28:24.031Z,98842.25
2019-03-04T05:33:26.500Z,98861.95
2019-03-04T05:38:29.008Z,98881.73
2019-03-04T05:43:31.482Z,98829.42
2019-03-04T05:48:33.973Z,98835.63
2019-03-04T05:53:36.432Z,98868.20
2019-03-04T05:58:38.899Z,98856.94
2019-03-04T06:03:41.380Z,98854.69
2019-03-04T06:08:43.831Z,98859.52
2019-03-04T06:13:46.288Z,98820.84
2019-03-04T06:18:48.749Z,98813.67
2019-03-04T06:23:51.209Z,98806.19
2019-03-04T06:28:53.674Z,98820.36
2019-03-04T06:33:56.146Z,98836.36
2019-03-04T06:38:58.608Z,98852.13
2019-03-04T06:44:01.080Z,98868.41
2019-03-04T06:49:03.555Z,98888.22
2019-03-04T06:54:14.791Z,98919.21
2019-03-04T06:59:48.129Z,98926.46
2019-03-04T07:05:27.734Z,98950.75
2019-03-04T07:10:30.260Z,98942.03
2019-03-04T07:15:32.738Z,98908.98
2019-03-04T07:20:35.207Z,98897.89
2019-03-04T07:25:37.760Z,98881.34
2019-03-04T07:30:40.223Z,98899.85
2019-03-04T07:35:42.700Z,98926.49
2019-03-04T07:40:45.169Z,98934.81
2019-03-04T07:45:47.639Z,98920.91
2019-03-04T07:50:50.095Z,98908.15
2019-03-04T07:55:52.552Z,98886.67
2019-03-04T08:00:55.019Z,98888.31
2019-03-04T08:05:57.819Z,98875.29
2019-03-04T08:11:27.729Z,98864.09
2019-03-04T08:16:30.201Z,98862.07
2019-03-04T08:21:32.680Z,98873.72
2019-03-04T08:26:35.164Z,98903.11
2019-03-04T08:31:37.641Z,98890.19
2019-03-04T08:36:40.102Z,98921.39
2019-03-04T08:41:42.561Z,98906.62
2019-03-04T08:46:45.026Z,98914.26
2019-03-04T08:51:47.523Z,98935.75
2019-03-04T08:56:49.964Z,98965.82
2019-03-04T09:01:52.455Z,98974.10
2019-03-04T09:06:54.903Z,98951.59
2019-03-04T09:11:57.368Z,98985.28
2019-03-04T09:16:59.874Z,98948.23
2019-03-04T09:22:02.350Z,98959.16
2019-03-04T09:27:04.807Z,98974.08
2019-03-04T09:32:07.274Z,98993.51
2019-03-04T09:37:09.732Z,98982.01
2019-03-04T09:42:12.178Z,98988.14
2019-03-04T09:47:21.213Z,98987.58
2019-03-04T09:52:23.666Z,98988.22
2019-03-04T09:57:26.122Z,98973.86
2019-03-04T10:02:28.591Z,98991.48
2019-03-04T10:07:33.863Z,98965.57
2019-03-04T10:12:51.270Z,98948.50
2019-03-04T10:18:18.110Z,98949.72
2019-03-04T10:23:58.101Z,98945.64
2019-03-04T10:29:02.193Z,98933.36
2019-03-04T10:34:21.605Z,98941.66
2019-03-04T10:39:24.067Z,98981.58
2019-03-04T10:44:44.504Z,98977.17
2019-03-04T10:49:46.962Z,98973.26
2019-03-04T10:54:49.483Z,98959.77
2019-03-04T10:59:51.945Z,98961.95
2019-03-04T11:04:54.412Z,98982.98
2019-03-04T11:09:56.867Z,98983.70
2019-03-04T11:14:59.327Z,98986.09
2019-03-04T11:20:01.775Z,98965.72
2019-03-04T11:25:04.239Z,98975.55
2019-03-04T11:30:09.443Z,98965.18
2019-03-04T11:35:11.997Z,98941.74
2019-03-04T11:40:23.517Z,98944.62
2019-03-04T11:45:25.974Z,98943.55
2019-03-04T11:50:28.432Z,98955.80
2019-03-04T11:55:33.806Z,98950.47
2019-03-04T12:00:39.233Z,98944.47
2019-03-04T12:05:41.692Z,98917.25
2019-03-04T12:10:44.161Z,98921.06
2019-03-04T12:15:46.621Z,98919.00
2019-03-04T12:20:49.069Z,98882.38
2019-03-04T12:25:51.652Z,98871.48
2019-03-04T12:30:54.957Z,98867.04
2019-03-04T12:35:57.412Z,98857.13
2019-03-04T12:40:59.907Z,98848.54
2019-03-04T12:46:02.505Z,98847.58
2019-03-04T12:51:04.976Z,98836.21
2019-03-04T12:56:07.428Z,98830.38
2019-03-04T13:01:09.883Z,98802.49
2019-03-04T13:06:12.406Z,98805.34
2019-03-04T13:11:14.873Z,98811.31
2019-03-04T13:16:17.305Z,98821.22
2019-03-04T13:21:19.779Z,98831.67
2019-03-04T13:26:22.217Z,98829.97
2019-03-04T13:31:24.689Z,98867.81
2019-03-04T13:36:27.129Z,98885.44
2019-03-04T13:41:29.602Z,98857.03
2019-03-04T13:46:32.087Z,98882.92
2019-03-04T13:51:34.570Z,98848.72
2019-03-04T13:56:37.046Z,98870.31
2019-03-04T14:01:39.501Z,98848.66
2019-03-04T14:06:41.978Z,98843.83
2019-03-04T14:11:45.782Z,98841.58
2019-03-04T14:16:46.890Z,98850.47
2019-03-04T14:21:49.348Z,98862.92
2019-03-04T14:26:51.805Z,98864.92
2019-03-04T14:31:54.253Z,98868.62
2019-03-04T14:36:56.742Z,98868.08
2019-03-04T14:41:59.219Z,98859.52
2019-03-04T14:47:01.682Z,98866.49
2019-03-04T14:52:04.139Z,98927.36
2019-03-04T14:57:06.583Z,99016.72
2019-03-04T15:02:09.053Z,99057.85
2019-03-04T15:07:13.819Z,99039.79
2019-03-04T15:12:14.014Z,99031.78
2019-03-04T15:17:22.436Z,99034.52
2019-03-04T15:22:34.405Z,99038.20
2019-03-04T15:27:27.368Z,99067.92
2019-03-04T15:32:29.824Z,99096.19
2019-03-04T15:37:33.671Z,99114.51
2019-03-04T15:42:34.736Z,99122.56
2019-03-04T15:47:37.198Z,99128.36
2019-03-04T15:52:39.695Z,99133.14
2019-03-04T15:57:42.177Z,99149.95
2019-03-04T16:02:44.650Z,99160.39
2019-03-04T16:07:47.121Z,99190.84
2019-03-04T16:12:49.577Z,99207.79
2019-03-04T16:17:52.076Z,99215.84
2019-03-04T16:22:54.671Z,99209.77
2019-03-04T16:28:12.187Z,99222.60
2019-03-04T16:33:14.653Z,99209.48
2019-03-04T16:38:17.130Z,99222.25
2019-03-04T16:43:19.593Z,99239.31
2019-03-04T16:48:22.086Z,99263.84
2019-03-04T16:53:27.351Z,99292.66
2019-03-04T16:58:29.919Z,99312.68
2019-03-04T17:03:32.418Z,99321.98
2019-03-04T17:08:34.879Z,99336.64
2019-03-04T17:13:37.374Z,99356.23
2019-03-04T17:18:39.873Z,99390.31
2019-03-04T17:23:42.343Z,99405.77
2019-03-04T17:28:44.847Z,99421.22
2019-03-04T17:33:47.311Z,99437.65
2019-03-04T17:38:49.782Z,99443.52
2019-03-04T17:43:52.262Z,99457.39
2019-03-04T17:48:54.745Z,99468.95
2019-03-04T17:53:57.260Z,99471.27
2019-03-04T17:58:59.787Z,99480.46
2019-03-04T18:04:02.263Z,99494.94
2019-03-04T18:09:04.723Z,99495.89
2019-03-04T18:14:07.183Z,99510.36
2019-03-04T18:19:09.812Z,99518.75
2019-03-04T18:24:12.284Z,99533.00
2019-03-04T18:29:20.670Z,99540.03
2019-03-04T18:34:47.643Z,99554.67
2019-03-04T18:40:11.150Z,99569.11
2019-03-04T18:45:28.695Z,99583.52
2019-03-04T18:50:31.300Z,99588.35
2019-03-04T18:55:33.792Z,99599.73
2019-03-04T19:00:36.264Z,99619.52
2019-03-04T19:05:38.720Z,99618.54
2019-03-04T19:10:41.212Z,99613.06
2019-03-04T19:15:43.702Z,99621.64
2019-03-04T19:20:46.229Z,99621.27
2019-03-04T19:25:48.693Z,99617.88
2019-03-04T19:30:51.215Z,99612.78
2019-03-04T19:35:53.685Z,99619.60
2019-03-04T19:40:56.171Z,99621.13
2019-03-04T19:45:58.616Z,99621.11
2019-03-04T19:51:01.092Z,99614.25
2019-03-04T19:56:03.591Z,99622.44
2019-03-04T20:01:06.055Z,99620.67
2019-03-04T20:06:08.546Z,99628.65
2019-03-04T20:11:11.084Z,99626.75
2019-03-04T20:16:13.517Z,99615.21
2019-03-04T20:21:16.023Z,99623.95
2019-03-04T20:26:18.530Z,99623.14
2019-03-04T20:31:21.061Z,99637.75
2019-03-04T20:36:25.777Z,99636.40
2019-03-04T20:41:26.004Z,99634.84
2019-03-04T20:46:28.465Z,99644.79
2019-03-04T20:51:30.921Z,99648.52
2019-03-04T20:56:33.402Z,99655.51
2019-03-04T21:01:35.898Z,99665.72
2019-03-04T21:06:38.359Z,99675.88
2019-03-04T21:11:40.843Z,99669.66
2019-03-04T21:16:43.322Z,99691.73
2019-03-04T21:21:45.794Z,99693.50
2019-03-04T21:26:48.305Z,99698.17
2019-03-04T21:32:02.750Z,99715.71
2019-03-04T21:37:20.134Z,99714.84
2019-03-04T21:42:31.575Z,99733.72
2019-03-04T21:47:52.087Z,99746.41
2019-03-04T21:53:00.578Z,99751.24
2019-03-04T21:58:03.042Z,99751.62
2019-03-04T22:03:11.455Z,99752.55
2019-03-04T22:08:13.901Z,99759.77
2019-03-04T22:13:16.371Z,99764.30
2019-03-04T22:18:18.811Z,99764.05
2019-03-04T22:23:21.281Z,99759.19
2019-03-04T22:28:23.762Z,99764.64
2019-03-04T22:33:26.220Z,99762.09
2019-03-04T22:38:28.670Z,99769.38
2019-03-04T22:43:31.137Z,99780.19
2019-03-04T22:48:33.613Z,99785.44
2019-03-04T22:53:36.071Z,99793.22
2019-03-04T22:58:38.575Z,99792.05
2019-03-04T23:03:40.994Z,99787.75
2019-03-04T23:08:43.457Z,99793.06
2019-03-04T23:13:48.646Z,99800.40
2019-03-04T23:18:51.099Z,99812.95
2019-03-04T23:23:53.549Z,99809.45
2019-03-04T23:28:56.009Z,99807.84
2019-03-04T23:33:58.456Z,99819.84
2019-03-04T23:39:00.931Z,99821.14
2019-03-04T23:44:03.385Z,99819.63
2019-03-04T23:49:05.870Z,99814.59
2019-03-04T23:54:08.337Z,99816.23
2019-03-04T23:59:10.795Z,99825.31
